Terminal Aerodrome Forecast
Issued by NWS

Home | Current Version | Previous Version | Text Only | Print | Product List | Glossary On
Versions: 1 2 3 4 5 6 7 8 9 10 11 12 13 14 15 16
000
FTUS42 TJSJ 211100
TAFISX
TAF
TISX 211140Z 2112/2212 VRB05KT P6SM VCSH FEW025
     FM211300 09015KT P6SM VCSH SCT025 BKN050
     FM212300 07012KT P6SM VCTS SCT025CB BKN050
      AMD NOT SKED=

USA.gov is the U.S. government's official web portal to all federal, state and local government web resources and services.